Brandonville, West Virginia
Current Conditions -  °F | °C
As of 6:07 PM on Tuesday 27 Jan 2015 (Local Time) from KMGW Reporting Station
Light Snow Light Snow  
Wind Chill: -10°   Ceiling: 2500
Heat Index: -6°   Visibility: 4mi
Dew Point: -10°   Wind: 6mph
Humidity: 72%   Direction: 300°WNW
Pressure: 30.04"   Gusts: NA
Location:  39.6431°N, 79.6244°W
Report Text: KMGW 272307Z 30005KT 4SM -SN SCT016 BKN025 OVC034 M06/M10 A3004 RMK AO2 P0000 T10561100
Loading
Personal Weather Stations






























Interactive Weather Map New forecast layout! Learn more

10-Day Weather Forecast

Advertisements
Track Severe Weather on mobile